Time;durP1;ratioP1;P1;durP2;ratioP2;P2;SDS_P1;SDS_P2;PMS_P1;PMS_P2;Temp;Humidity;BMP_temperature;BMP_pressure;BME280_temperature;BME280_humidity;BME280_pressure;Samples;Min_cycle;Max_cycle;Signal;HPM_P1;HPM_P2
2022/03/15 00:01:50;;;;;;;48.10;25.20;;;;;;;-4.84;72.04;102961.26;107875;1246;69581;-69
2022/03/15 00:04:19;;;;;;;50.20;24.90;;;;;;;-4.81;72.41;102963.54;107765;1246;72666;-70
2022/03/15 00:06:48;;;;;;;51.10;24.50;;;;;;;-4.82;71.99;102968.63;107777;1246;62045;-68
2022/03/15 00:09:17;;;;;;;46.40;24.50;;;;;;;-4.85;72.13;102967.48;107793;1246;61593;-68
2022/03/15 00:11:47;;;;;;;45.80;22.90;;;;;;;-4.92;70.89;102969.69;107681;1245;74193;-69
2022/03/15 00:14:16;;;;;;;48.80;25.10;;;;;;;-4.98;72.67;102970.54;107585;1246;72993;-67
2022/03/15 00:16:45;;;;;;;49.60;25.70;;;;;;;-5.02;72.26;102973.82;107651;1246;68425;-69
2022/03/15 00:19:15;;;;;;;49.10;24.50;;;;;;;-5.07;73.35;102974.05;107623;1245;74920;-69
2022/03/15 00:21:43;;;;;;;61.90;29.10;;;;;;;-5.10;72.94;102975.81;107619;1246;61827;-66
2022/03/15 00:24:12;;;;;;;56.90;27.40;;;;;;;-5.12;74.66;102972.19;107638;1246;61931;-68
2022/03/15 00:26:41;;;;;;;53.30;25.70;;;;;;;-5.10;74.29;102972.92;107675;1246;76090;-65
2022/03/15 00:29:12;;;;;;;41.00;18.90;;;;;;;-5.07;73.70;102972.14;107546;1246;73148;-67
2022/03/15 00:31:42;;;;;;;40.50;19.50;;;;;;;-5.14;71.50;102966.86;107707;1246;68681;-63
2022/03/15 00:34:11;;;;;;;43.90;20.70;;;;;;;-5.27;71.39;102965.98;107748;1246;72070;-70
2022/03/15 00:36:42;;;;;;;38.40;18.40;;;;;;;-5.39;71.26;102966.48;107579;1246;60261;-68
2022/03/15 00:39:13;;;;;;;44.30;18.40;;;;;;;-5.53;71.76;102963.02;107753;1246;60455;-67
2022/03/15 00:41:42;;;;;;;55.40;24.30;;;;;;;-5.63;71.79;102962.21;107711;1246;74584;-68
2022/03/15 00:44:11;;;;;;;44.20;20.10;;;;;;;-5.73;71.79;102964.27;107870;1246;72072;-67
2022/03/15 00:46:39;;;;;;;52.00;25.10;;;;;;;-5.82;72.15;102965.34;107698;1246;71180;-69
2022/03/15 00:49:09;;;;;;;45.80;20.20;;;;;;;-5.91;72.20;102965.27;107587;1246;71832;-69
2022/03/15 00:51:38;;;;;;;25.70;13.60;;;;;;;-5.99;72.37;102963.84;107507;1246;60229;-72
2022/03/15 00:54:07;;;;;;;43.00;13.50;;;;;;;-6.05;72.93;102963.14;107482;1246;59578;-70
2022/03/15 00:56:36;;;;;;;52.90;26.00;;;;;;;-6.10;73.30;102961.26;107465;1246;72787;-71
2022/03/15 00:59:08;;;;;;;56.60;26.10;;;;;;;-6.19;73.14;102962.17;107289;1248;70695;-69
2022/03/15 01:01:39;;;;;;;63.20;31.10;;;;;;;-6.20;73.34;102955.02;107545;1246;69387;-69
2022/03/15 01:04:09;;;;;;;53.60;27.60;;;;;;;-6.11;75.56;102950.56;107465;1247;72918;-67
2022/03/15 01:06:39;;;;;;;66.10;30.50;;;;;;;-5.99;75.40;102944.33;107344;1247;61680;-69
2022/03/15 01:09:09;;;;;;;57.40;29.10;;;;;;;-5.82;75.53;102942.45;107430;1246;61948;-68
2022/03/15 01:11:38;;;;;;;59.20;27.90;;;;;;;-5.80;74.67;102939.27;107455;1246;74127;-67
2022/03/15 01:14:09;;;;;;;61.80;28.10;;;;;;;-5.75;74.87;102937.91;107509;1246;72815;-68
2022/03/15 01:16:38;;;;;;;59.40;28.60;;;;;;;-5.75;74.33;102937.71;107422;1246;71000;-68
2022/03/15 01:19:08;;;;;;;56.20;29.50;;;;;;;-5.74;74.32;102938.26;107440;1246;73562;-67
2022/03/15 01:21:39;;;;;;;59.70;29.00;;;;;;;-5.75;74.48;102940.45;107503;1246;62153;-69
2022/03/15 01:24:09;;;;;;;55.00;28.50;;;;;;;-5.73;74.89;102938.14;107511;1247;60164;-68
2022/03/15 01:26:38;;;;;;;59.10;30.00;;;;;;;-5.72;75.11;102939.02;107693;1246;73952;-69
2022/03/15 01:29:07;;;;;;;57.40;29.60;;;;;;;-5.73;74.77;102939.15;107692;1246;73673;-69
2022/03/15 01:31:36;;;;;;;61.70;28.60;;;;;;;-5.74;75.01;102937.08;107663;1246;71506;-68
2022/03/15 01:34:07;;;;;;;61.60;30.80;;;;;;;-5.79;74.93;102941.67;107516;1246;74586;-68
2022/03/15 01:36:36;;;;;;;67.80;27.60;;;;;;;-5.79;75.13;102942.71;107543;1246;60664;-66
2022/03/15 01:39:05;;;;;;;58.50;28.10;;;;;;;-5.83;75.79;102941.23;107587;1246;60297;-69
2022/03/15 01:41:36;;;;;;;60.40;29.40;;;;;;;-5.83;74.87;102939.34;107499;1246;75058;-69
2022/03/15 01:44:16;;;;;;;57.30;28.80;;;;;;;-5.85;76.23;102934.88;107720;1246;72824;-69
2022/03/15 01:46:47;;;;;;;69.40;29.10;;;;;;;-5.87;74.89;102928.36;107737;1246;69522;-69
2022/03/15 01:49:19;;;;;;;62.70;29.60;;;;;;;-5.84;74.69;102931.70;107433;1248;71505;-66
2022/03/15 01:51:51;;;;;;;53.70;26.40;;;;;;;-5.82;74.55;102933.80;107553;1247;59700;-68
2022/03/15 01:54:20;;;;;;;59.70;28.50;;;;;;;-5.83;74.44;102930.71;107699;1245;60659;-69
2022/03/15 01:56:50;;;;;;;61.10;29.60;;;;;;;-5.84;73.94;102929.46;107576;1246;75405;-69
2022/03/15 01:59:19;;;;;;;60.50;29.10;;;;;;;-5.86;74.42;102932.81;107731;1244;71931;-67
2022/03/15 02:01:48;;;;;;;58.60;28.70;;;;;;;-5.90;74.43;102937.95;107466;1246;70678;-66
2022/03/15 02:04:17;;;;;;;59.20;29.10;;;;;;;-5.93;75.14;102936.88;108619;1247;73818;-65
2022/03/15 02:06:48;;;;;;;55.70;27.80;;;;;;;-5.94;74.79;102943.64;107408;1246;61136;-65
2022/03/15 02:09:17;;;;;;;60.10;29.80;;;;;;;-5.96;74.61;102943.89;107534;1246;60319;-65
2022/03/15 02:11:46;;;;;;;59.40;28.90;;;;;;;-5.99;74.57;102944.15;107533;1246;73223;-66
2022/03/15 02:14:15;;;;;;;65.40;31.60;;;;;;;-6.01;74.44;102949.02;107510;1246;69964;-66
2022/03/15 02:16:44;;;;;;;66.70;31.20;;;;;;;-6.01;75.10;102947.98;107466;1248;69686;-66
2022/03/15 02:19:13;;;;;;;62.70;30.00;;;;;;;-5.99;75.46;102950.27;107456;1248;72024;-67
2022/03/15 02:21:42;;;;;;;64.10;31.30;;;;;;;-6.02;74.95;102951.33;107518;1246;59576;-66
2022/03/15 02:24:11;;;;;;;70.20;30.10;;;;;;;-6.04;75.47;102954.67;107531;1246;59563;-67
2022/03/15 02:26:40;;;;;;;63.20;30.50;;;;;;;-6.01;75.99;102956.80;107519;1246;71971;-69
2022/03/15 02:29:09;;;;;;;55.60;30.50;;;;;;;-6.00;75.97;102962.98;107511;1246;72376;-68
2022/03/15 02:31:39;;;;;;;62.70;31.20;;;;;;;-6.00;75.89;102963.98;107544;1246;68729;-67
2022/03/15 02:34:08;;;;;;;66.40;30.50;;;;;;;-6.02;75.01;102969.35;107496;1246;71474;-68
2022/03/15 02:36:38;;;;;;;67.20;31.20;;;;;;;-6.07;75.00;102964.23;107563;1247;60817;-66
2022/03/15 02:39:07;;;;;;;64.90;32.30;;;;;;;-6.09;75.31;102961.46;107518;1246;62163;-67
2022/03/15 02:41:38;;;;;;;67.60;32.00;;;;;;;-6.13;75.15;102956.77;107483;1246;76345;-65
2022/03/15 02:44:07;;;;;;;62.50;30.80;;;;;;;-6.19;76.50;102953.35;107444;1246;72255;-68
2022/03/15 02:46:39;;;;;;;64.00;29.90;;;;;;;-6.26;75.48;102954.48;107542;1246;71191;-65
2022/03/15 02:49:09;;;;;;;58.90;30.60;;;;;;;-6.30;75.47;102958.06;107484;1246;74280;-68
2022/03/15 02:51:38;;;;;;;58.50;32.00;;;;;;;-6.34;75.38;102951.15;107483;1246;61691;-65
2022/03/15 02:54:11;;;;;;;72.60;33.50;;;;;;;-6.38;74.89;102954.42;107460;1246;62190;-69
2022/03/15 02:56:43;;;;;;;62.90;30.40;;;;;;;-6.46;73.87;102950.61;107540;1246;72208;-68
2022/03/15 02:59:14;;;;;;;74.70;35.40;;;;;;;-6.58;73.47;102950.20;107498;1246;70457;-68
2022/03/15 03:01:48;;;;;;;70.00;33.60;;;;;;;-6.66;73.68;102954.84;107332;1247;70159;-67
2022/03/15 03:04:21;;;;;;;65.60;33.10;;;;;;;-6.68;76.15;102952.73;107449;1246;74394;-66
2022/03/15 03:06:50;;;;;;;70.10;35.30;;;;;;;-6.66;77.23;102955.84;107512;1246;63691;-68
2022/03/15 03:09:19;;;;;;;74.70;36.20;;;;;;;-6.61;77.76;102958.88;107460;1246;62007;-65
2022/03/15 03:11:48;;;;;;;76.10;36.80;;;;;;;-6.60;77.28;102958.42;107478;1246;74083;-65
2022/03/15 03:14:18;;;;;;;70.40;36.30;;;;;;;-6.58;77.95;102957.33;107414;1247;71570;-66
2022/03/15 03:16:47;;;;;;;70.80;35.80;;;;;;;-6.57;77.45;102953.45;107534;1246;70912;-66
2022/03/15 03:19:17;;;;;;;79.10;35.20;;;;;;;-6.54;78.77;102948.13;107510;1246;70703;-66
2022/03/15 03:21:48;;;;;;;62.50;30.90;;;;;;;-6.55;77.50;102946.22;107487;1245;62252;-66
2022/03/15 03:24:24;;;;;;;73.40;34.80;;;;;;;-6.53;77.71;102948.66;107533;1246;60263;-66
2022/03/15 03:26:53;;;;;;;62.90;31.70;;;;;;;-6.53;77.01;102946.30;107569;1247;75984;-66
2022/03/15 03:29:22;;;;;;;74.40;37.80;;;;;;;-6.50;76.60;102943.69;107618;1246;73376;-68
2022/03/15 03:31:51;;;;;;;80.80;35.50;;;;;;;-6.49;76.41;102938.80;107702;1246;69470;-67
2022/03/15 03:34:21;;;;;;;73.30;36.30;;;;;;;-6.50;76.05;102939.27;107615;1247;73810;-69
2022/03/15 03:36:50;;;;;;;71.90;35.50;;;;;;;-6.54;76.27;102936.42;107562;1246;63011;-66
2022/03/15 03:39:25;;;;;;;75.10;33.90;;;;;;;-6.54;77.60;102933.03;107460;1246;59347;-66
2022/03/15 03:41:55;;;;;;;79.60;36.10;;;;;;;-6.54;76.95;102931.01;107538;1248;70777;-65
2022/03/15 03:44:24;;;;;;;77.60;36.00;;;;;;;-6.50;76.56;102928.44;107450;1247;72330;-63
2022/03/15 03:46:53;;;;;;;75.00;34.10;;;;;;;-6.52;76.29;102927.02;107410;1248;71187;-63
2022/03/15 03:49:23;;;;;;;76.80;36.90;;;;;;;-6.53;76.06;102925.79;107348;1246;74222;-63
2022/03/15 03:51:52;;;;;;;78.50;37.10;;;;;;;-6.56;75.95;102922.11;107294;1246;62856;-65
2022/03/15 03:54:23;;;;;;;69.20;34.80;;;;;;;-6.60;75.88;102924.52;107320;1248;61386;-66
2022/03/15 03:56:52;;;;;;;78.60;36.00;;;;;;;-6.61;75.56;102925.67;107357;1246;72361;-68
2022/03/15 03:59:21;;;;;;;68.10;33.80;;;;;;;-6.65;75.64;102926.23;107323;1248;70410;-66
2022/03/15 04:01:51;;;;;;;76.90;36.80;;;;;;;-6.70;76.34;102924.69;107408;1246;69768;-67
2022/03/15 04:04:20;;;;;;;79.20;37.40;;;;;;;-6.72;76.77;102925.15;107450;1246;75098;-67
2022/03/15 04:06:50;;;;;;;72.20;35.20;;;;;;;-6.73;76.85;102923.60;107412;1246;59693;-69
2022/03/15 04:09:19;;;;;;;74.90;38.50;;;;;;;-6.74;76.73;102923.71;107311;1246;60530;-67
2022/03/15 04:11:49;;;;;;;73.90;37.90;;;;;;;-6.79;76.53;102920.15;107383;1246;75910;-68
2022/03/15 04:14:18;;;;;;;76.30;37.10;;;;;;;-6.84;76.81;102913.53;107523;1246;72449;-71
2022/03/15 04:16:47;;;;;;;72.70;35.00;;;;;;;-6.86;76.67;102909.41;107352;1248;68316;-67
2022/03/15 04:19:17;;;;;;;67.50;32.40;;;;;;;-6.86;76.78;102911.11;107313;1248;73046;-67
2022/03/15 04:21:46;;;;;;;63.60;32.80;;;;;;;-6.86;76.63;102911.45;107388;1246;60980;-68
2022/03/15 04:24:17;;;;;;;81.70;38.20;;;;;;;-6.88;75.95;102910.20;107395;1246;61259;-69
2022/03/15 04:26:47;;;;;;;81.70;37.60;;;;;;;-6.92;75.53;102910.54;107399;1246;73206;-67
2022/03/15 04:29:16;;;;;;;86.30;40.90;;;;;;;-6.95;75.77;102912.66;107542;1246;70118;-66
2022/03/15 04:31:45;;;;;;;73.20;38.60;;;;;;;-6.97;76.22;102916.14;107519;1247;69011;-66
2022/03/15 04:34:14;;;;;;;73.20;36.40;;;;;;;-7.00;75.56;102914.34;107443;1246;71328;-68
2022/03/15 04:36:44;;;;;;;70.10;34.60;;;;;;;-7.00;76.59;102913.49;107409;1246;59647;-64
2022/03/15 04:39:14;;;;;;;75.20;36.60;;;;;;;-6.98;76.89;102910.02;107249;1247;61659;-69
2022/03/15 04:41:46;;;;;;;81.30;38.80;;;;;;;-6.94;76.79;102905.05;107550;1246;75885;-67
2022/03/15 04:44:15;;;;;;;84.30;40.90;;;;;;;-6.87;76.81;102898.54;107464;1246;73640;-69
2022/03/15 04:46:44;;;;;;;77.20;38.00;;;;;;;-6.84;77.19;102893.73;107515;1247;70534;-67
2022/03/15 04:49:13;;;;;;;76.60;35.30;;;;;;;-6.80;76.38;102890.45;107427;1249;72399;-66
2022/03/15 04:51:42;;;;;;;36.20;17.40;;;;;;;-6.78;75.12;102894.26;107522;1246;59998;-66
2022/03/15 04:54:12;;;;;;;46.40;19.30;;;;;;;-6.85;74.69;102894.55;107525;1246;60432;-65
2022/03/15 04:56:41;;;;;;;53.00;25.50;;;;;;;-6.90;75.06;102898.59;107548;1246;75564;-70
2022/03/15 04:59:10;;;;;;;45.20;21.20;;;;;;;-6.94;75.35;102903.21;107655;1246;70222;-67
2022/03/15 05:01:39;;;;;;;58.50;28.10;;;;;;;-6.98;75.58;102902.07;107736;1247;67579;-69
2022/03/15 05:04:09;;;;;;;59.80;29.80;;;;;;;-6.89;77.00;102899.46;107689;1246;74009;-69
2022/03/15 05:06:39;;;;;;;62.80;27.60;;;;;;;-6.83;75.41;102902.73;107756;1248;59622;-67
2022/03/15 05:09:08;;;;;;;47.80;21.60;;;;;;;-6.83;75.07;102903.23;107632;1246;60752;-69
2022/03/15 05:11:38;;;;;;;38.10;20.30;;;;;;;-6.85;75.02;102900.29;107424;1246;75295;-73
2022/03/15 05:14:08;;;;;;;74.60;32.90;;;;;;;-6.81;75.13;102897.73;107626;1247;73574;-72
2022/03/15 05:16:38;;;;;;;79.70;36.90;;;;;;;-6.74;75.46;102896.91;107553;1246;70885;-72
2022/03/15 05:19:07;;;;;;;76.60;35.50;;;;;;;-6.63;75.95;102895.28;107692;1246;71725;-71
2022/03/15 05:21:36;;;;;;;93.00;38.90;;;;;;;-6.54;75.85;102896.75;107736;1247;59606;-74
2022/03/15 05:24:06;;;;;;;75.50;34.30;;;;;;;-6.46;75.17;102894.66;107960;1247;59847;-75
2022/03/15 05:26:34;;;;;;;81.70;35.20;;;;;;;-6.34;74.12;102901.29;107540;1246;73720;-73
2022/03/15 05:29:04;;;;;;;53.80;26.20;;;;;;;-6.35;74.27;102891.10;107522;1246;72443;-71
2022/03/15 05:31:35;;;;;;;64.30;29.00;;;;;;;-6.23;74.00;102897.91;107494;1247;70893;-71
2022/03/15 05:34:05;;;;;;;100.10;41.50;;;;;;;-6.18;74.19;102899.96;107436;1247;74609;-69
2022/03/15 05:36:34;;;;;;;76.60;36.70;;;;;;;-5.99;76.47;102901.89;107553;1247;61024;-70
2022/03/15 05:39:03;;;;;;;60.60;27.20;;;;;;;-5.85;74.19;102911.96;107481;1247;62381;-72
2022/03/15 05:41:31;;;;;;;55.00;27.20;;;;;;;-5.79;73.19;102915.36;107553;1244;73324;-71
2022/03/15 05:44:00;;;;;;;60.20;28.60;;;;;;;-5.77;73.22;102914.94;107341;1248;72860;-72
2022/03/15 05:46:29;;;;;;;33.00;17.10;;;;;;;-5.75;73.38;102920.42;107521;1247;70699;-70
2022/03/15 05:48:58;;;;;;;29.90;14.10;;;;;;;-5.68;73.78;102926.24;107502;1248;74936;-71
2022/03/15 05:51:27;;;;;;;31.30;18.50;;;;;;;-5.64;73.81;102927.20;107458;1247;62768;-70
2022/03/15 05:53:56;;;;;;;45.90;20.60;;;;;;;-5.64;73.71;102929.23;107431;1246;62729;-71
2022/03/15 05:56:25;;;;;;;44.20;15.50;;;;;;;-5.63;73.54;102934.17;107352;1248;74320;-70
2022/03/15 05:58:54;;;;;;;37.70;14.00;;;;;;;-5.61;73.83;102934.77;107317;1247;70708;-71
2022/03/15 06:01:23;;;;;;;13.30;9.80;;;;;;;-5.56;73.82;102935.58;107219;1248;70128;-70
2022/03/15 06:03:53;;;;;;;41.40;17.60;;;;;;;-5.50;74.23;102932.37;107385;1247;72953;-70
2022/03/15 06:06:23;;;;;;;46.20;23.60;;;;;;;-5.45;74.11;102929.77;107321;1246;62815;-72
2022/03/15 06:08:53;;;;;;;70.00;32.00;;;;;;;-5.37;74.26;102921.17;107434;1247;62012;-70
2022/03/15 06:11:22;;;;;;;78.70;33.60;;;;;;;-5.24;74.01;102917.29;107531;1246;72532;-70
2022/03/15 06:13:52;;;;;;;64.60;30.10;;;;;;;-5.15;73.84;102916.38;107487;1247;70414;-69
2022/03/15 06:16:21;;;;;;;92.50;43.00;;;;;;;-5.03;73.73;102916.70;107357;1247;68789;-70
2022/03/15 06:18:50;;;;;;;84.50;39.70;;;;;;;-4.92;73.56;102913.94;106275;1247;1699889;-70
2022/03/15 06:21:19;;;;;;;88.50;44.50;;;;;;;-4.69;74.49;102910.64;107574;1246;63990;-70
2022/03/15 06:23:48;;;;;;;87.10;39.40;;;;;;;-4.52;73.06;102912.59;107348;1247;61734;-69
2022/03/15 06:26:37;;;;;;;98.00;44.30;;;;;;;-4.27;72.58;102908.60;107554;1247;74411;-72
2022/03/15 06:29:06;;;;;;;118.90;57.50;;;;;;;-4.04;71.95;102904.39;107567;1246;71782;-71
2022/03/15 06:31:36;;;;;;;102.10;51.10;;;;;;;-3.83;70.91;102901.30;107945;1247;68722;-71
2022/03/15 06:34:06;;;;;;;94.50;45.50;;;;;;;-3.65;70.59;102907.47;107528;1248;72329;-71
2022/03/15 06:36:35;;;;;;;88.60;43.90;;;;;;;-3.45;70.17;102909.23;107648;1247;61606;-72
2022/03/15 06:39:05;;;;;;;79.60;35.80;;;;;;;-3.33;70.17;102911.17;107312;1247;61753;-72
2022/03/15 06:41:38;;;;;;;104.80;51.10;;;;;;;-3.18;70.05;102904.50;107452;1248;73298;-72
2022/03/15 06:44:08;;;;;;;;;;;;;;;-3.05;69.63;102901.34;107365;1246;70426;-72
2022/03/15 06:46:37;;;;;;;108.20;51.10;;;;;;;-2.79;70.41;102901.30;107372;1246;69399;-70
2022/03/15 06:49:07;;;;;;;113.40;53.10;;;;;;;-2.57;68.79;102898.27;107287;1248;74094;-71
2022/03/15 06:51:37;;;;;;;107.70;54.60;;;;;;;-2.39;67.09;102900.11;107326;1246;61137;-70
2022/03/15 06:54:06;;;;;;;103.90;53.00;;;;;;;-2.23;66.76;102903.08;109802;1247;61916;-73
2022/03/15 06:56:35;;;;;;;101.00;50.50;;;;;;;-2.01;66.13;102907.36;109832;1245;75744;-71
2022/03/15 06:59:03;;;;;;;115.60;55.90;;;;;;;-1.80;66.43;102913.13;107668;1247;71510;-71
2022/03/15 07:01:32;;;;;;;101.30;52.40;;;;;;;-1.66;65.99;102917.77;107254;1247;70431;-75
2022/03/15 07:04:02;;;;;;;77.30;38.40;;;;;;;-1.47;65.98;102925.86;107788;1244;74220;-72
2022/03/15 07:06:31;;;;;;;71.20;32.00;;;;;;;-1.26;65.01;102934.68;107331;1247;60226;-71
2022/03/15 07:08:59;;;;;;;69.40;29.50;;;;;;;-1.17;64.61;102941.80;107304;1247;60860;-70
2022/03/15 07:11:29;;;;;;;89.80;47.50;;;;;;;-1.17;64.83;102946.08;107506;1247;74983;-70
2022/03/15 07:13:58;;;;;;;92.30;49.00;;;;;;;-1.09;65.71;102946.67;107470;1246;69890;-72
2022/03/15 07:16:27;;;;;;;76.90;40.10;;;;;;;-0.97;65.94;102947.16;108390;1246;68739;-72
2022/03/15 07:18:57;;;;;;;86.00;40.30;;;;;;;-0.78;66.01;102942.05;107374;1246;72481;-72
2022/03/15 07:21:26;;;;;;;82.80;42.90;;;;;;;-0.66;65.59;102932.26;107265;1247;60860;-72
2022/03/15 07:23:57;;;;;;;77.30;40.00;;;;;;;-0.55;65.57;102928.77;107526;1248;62251;-74
2022/03/15 07:26:26;;;;;;;57.60;31.40;;;;;;;-0.45;64.83;102924.39;107572;1247;73300;-71
2022/03/15 07:28:56;;;;;;;64.10;32.30;;;;;;;-0.30;64.60;102922.65;107632;1247;71286;-71
2022/03/15 07:31:25;;;;;;;43.30;23.20;;;;;;;-0.16;64.63;102920.52;107542;1247;70528;-73
2022/03/15 07:33:54;;;;;;;58.80;31.90;;;;;;;0.06;64.05;102922.21;107586;1247;74321;-73
2022/03/15 07:36:22;;;;;;;53.50;27.80;;;;;;;0.26;63.69;102920.63;107463;1246;61227;-72
2022/03/15 07:38:52;;;;;;;58.60;28.50;;;;;;;0.49;62.80;102920.23;107397;1247;60909;-71
2022/03/15 07:41:23;;;;;;;55.20;25.90;;;;;;;0.64;62.37;102919.45;107472;1246;75017;-71
2022/03/15 07:43:52;;;;;;;65.10;26.70;;;;;;;0.85;61.48;102918.14;107363;1247;71518;-70
2022/03/15 07:46:21;;;;;;;77.30;40.30;;;;;;;0.99;61.15;102915.44;107366;1247;71239;-70
2022/03/15 07:48:50;;;;;;;71.90;37.00;;;;;;;1.15;61.47;102912.36;107383;1246;72706;-71
2022/03/15 07:51:19;;;;;;;62.40;31.70;;;;;;;1.35;60.51;102914.30;107450;1247;59995;-72
2022/03/15 07:53:48;;;;;;;81.80;42.40;;;;;;;1.53;59.33;102909.85;107483;1246;59573;-71
2022/03/15 07:56:17;;;;;;;81.70;43.90;;;;;;;1.73;60.01;102906.08;107482;1247;71695;-68
2022/03/15 07:58:46;;;;;;;81.50;43.20;;;;;;;1.91;59.45;102903.48;107369;1247;71624;-71
2022/03/15 08:01:15;;;;;;;55.60;29.40;;;;;;;2.07;59.11;102900.01;107381;1247;69216;-71
2022/03/15 08:03:46;;;;;;;74.70;41.20;;;;;;;2.27;57.75;102898.58;107460;1247;73869;-72
2022/03/15 08:06:15;;;;;;;55.80;29.00;;;;;;;2.40;58.78;102888.56;108520;1247;59722;-72
2022/03/15 08:08:45;;;;;;;72.10;36.00;;;;;;;2.63;57.75;102873.85;107460;1247;59850;-71
2022/03/15 08:11:13;;;;;;;71.20;36.80;;;;;;;2.80;56.81;102870.66;107871;1247;75408;-71
2022/03/15 08:13:43;;;;;;;67.30;35.80;;;;;;;2.97;56.57;102866.09;107651;1247;70707;-71
2022/03/15 08:16:12;;;;;;;66.40;38.00;;;;;;;3.16;55.65;102858.38;107517;1247;71078;-71
2022/03/15 08:18:42;;;;;;;47.00;24.90;;;;;;;3.33;54.70;102859.11;107505;1247;74567;-71
2022/03/15 08:21:11;;;;;;;65.70;35.30;;;;;;;3.50;53.96;102861.21;107533;1244;59748;-71
2022/03/15 08:23:41;;;;;;;56.60;32.70;;;;;;;3.58;54.00;102851.32;107666;1247;61601;-70
2022/03/15 08:26:10;;;;;;;68.00;37.90;;;;;;;3.70;53.43;102842.92;107514;1247;75410;-72
2022/03/15 08:28:41;;;;;;;47.60;26.60;;;;;;;3.82;54.15;102837.30;107518;1246;71227;-71
2022/03/15 08:31:10;;;;;;;57.40;29.90;;;;;;;4.08;52.95;102835.30;107513;1247;70505;-73
2022/03/15 08:33:39;;;;;;;62.40;31.10;;;;;;;4.26;52.06;102828.35;107546;1247;73320;-71
2022/03/15 08:36:08;;;;;;;63.80;32.90;;;;;;;4.42;51.92;102824.86;107467;1247;59609;-73
2022/03/15 08:38:37;;;;;;;62.70;32.50;;;;;;;4.60;51.36;102823.60;107489;1247;60351;-72
2022/03/15 08:41:06;;;;;;;58.10;29.80;;;;;;;4.80;50.75;102817.44;107492;1247;75007;-73
2022/03/15 08:43:35;;;;;;;55.40;28.70;;;;;;;5.04;51.40;102810.52;107652;1247;71259;-72
2022/03/15 08:46:05;;;;;;;41.90;24.20;;;;;;;5.25;51.22;102808.27;107500;1247;71095;-72
2022/03/15 08:48:34;;;;;;;42.10;23.10;;;;;;;5.52;50.52;102812.98;107486;1247;74476;-72
2022/03/15 08:51:03;;;;;;;38.20;22.00;;;;;;;5.76;48.80;102814.80;107684;1247;59696;-73
2022/03/15 08:53:32;;;;;;;35.80;21.40;;;;;;;5.90;47.43;102809.34;107554;1248;59299;-73
2022/03/15 08:56:03;;;;;;;35.80;20.10;;;;;;;5.99;46.27;102800.04;107586;1248;74532;-72
2022/03/15 08:58:32;;;;;;;32.50;18.20;;;;;;;6.19;44.47;102807.06;107531;1246;73532;-71
2022/03/15 09:01:01;;;;;;;29.30;17.50;;;;;;;6.23;44.50;102806.10;107696;1246;70935;-72
2022/03/15 09:03:50;;;;;;;34.10;19.90;;;;;;;6.33;42.62;102809.89;107722;1245;74664;-71
2022/03/15 09:06:19;;;;;;;39.30;21.10;;;;;;;6.35;44.23;102809.84;107452;1247;61117;-71
2022/03/15 09:08:48;;;;;;;27.90;16.20;;;;;;;6.57;43.86;102810.23;107600;1247;59618;-70
2022/03/15 09:11:17;;;;;;;30.70;18.50;;;;;;;6.62;43.94;102804.40;107610;1247;74566;-73
2022/03/15 09:13:47;;;;;;;38.40;21.20;;;;;;;6.68;43.81;102803.23;107662;1247;73271;-74
2022/03/15 09:16:16;;;;;;;35.60;21.80;;;;;;;6.82;44.14;102802.04;107524;1247;69242;-72
2022/03/15 09:18:45;;;;;;;35.40;21.60;;;;;;;7.00;45.30;102794.71;107610;1247;74281;-72
2022/03/15 09:21:15;;;;;;;29.40;17.60;;;;;;;7.13;43.54;102790.91;107578;1247;59626;-73
2022/03/15 09:23:45;;;;;;;32.20;18.90;;;;;;;7.34;41.30;102790.55;107438;1247;61648;-71
2022/03/15 09:26:14;;;;;;;39.80;20.50;;;;;;;7.26;42.27;102784.68;107377;1247;72957;-72
2022/03/15 09:28:44;;;;;;;24.10;14.50;;;;;;;7.33;42.00;102773.25;107408;1247;70704;-71
2022/03/15 09:31:13;;;;;;;36.90;20.80;;;;;;;7.54;41.02;102769.20;107494;1246;71151;-74
2022/03/15 09:33:43;;;;;;;35.90;20.90;;;;;;;7.68;40.26;102767.79;107503;1247;72546;-73
2022/03/15 09:36:15;;;;;;;39.20;21.60;;;;;;;7.66;40.93;102767.67;107479;1246;62274;-74
2022/03/15 09:38:44;;;;;;;31.70;17.40;;;;;;;7.62;41.55;102763.27;107625;1245;62596;-73
2022/03/15 09:41:18;;;;;;;37.80;21.30;;;;;;;7.78;39.96;102764.38;107499;1247;72353;-72
2022/03/15 09:43:49;;;;;;;37.50;20.70;;;;;;;7.69;41.34;102758.94;107417;1247;70716;-73
2022/03/15 09:46:21;;;;;;;28.90;16.40;;;;;;;7.82;40.83;102753.18;107464;1247;68836;-77
2022/03/15 09:49:10;;;;;;;34.40;21.10;;;;;;;8.02;40.64;102753.11;107620;1246;72155;-73
2022/03/15 09:51:43;;;;;;;31.80;18.30;;;;;;;8.17;40.77;102751.11;107605;1247;59537;-72
2022/03/15 09:54:13;;;;;;;36.90;20.70;;;;;;;8.32;40.45;102751.16;107813;1246;60916;-72
2022/03/15 09:56:42;;;;;;;35.10;19.90;;;;;;;8.41;40.63;102746.05;107809;1247;72137;-73
2022/03/15 09:59:18;;;;;;;32.70;17.20;;;;;;;8.55;39.07;102745.10;107810;1246;70344;-73
2022/03/15 10:01:53;;;;;;;40.10;21.20;;;;;;;8.65;38.18;102743.95;107692;1247;69626;-73
2022/03/15 10:04:24;;;;;;;35.20;20.40;;;;;;;8.47;39.08;102745.20;107695;1247;71961;-73
2022/03/15 10:06:54;;;;;;;35.70;21.60;;;;;;;8.57;39.06;102737.92;107743;1247;60579;-75
2022/03/15 10:09:27;;;;;;;37.80;24.40;;;;;;;8.70;38.71;102732.46;107626;1246;59330;-73
2022/03/15 10:11:57;;;;;;;34.60;20.50;;;;;;;8.76;38.98;102727.59;107401;1247;74146;-72
2022/03/15 10:14:26;;;;;;;30.90;20.50;;;;;;;8.97;38.97;102727.24;107485;1247;72184;-70
2022/03/15 10:17:04;;;;;;;34.90;22.00;;;;;;;9.07;38.28;102718.92;107455;1247;70829;-72
2022/03/15 10:19:34;;;;;;;34.20;21.40;;;;;;;9.10;38.52;102706.83;107411;1247;74402;-72
2022/03/15 10:22:08;;;;;;;33.10;20.40;;;;;;;9.18;37.81;102706.38;107634;1247;61082;-73
2022/03/15 10:24:38;;;;;;;35.70;22.00;;;;;;;9.35;37.90;102696.73;107651;1246;59549;-74
2022/03/15 10:27:08;;;;;;;36.10;20.60;;;;;;;9.52;37.96;102697.16;107618;1247;73493;-72
2022/03/15 10:29:37;;;;;;;33.50;21.10;;;;;;;9.66;38.06;102684.27;107711;1245;72837;-74
2022/03/15 10:32:06;;;;;;;28.50;18.90;;;;;;;9.82;37.07;102676.19;107578;1246;71224;-72
2022/03/15 10:34:36;;;;;;;35.10;21.00;;;;;;;9.95;36.76;102672.43;107480;1247;75318;-74
2022/03/15 10:37:05;;;;;;;31.60;20.70;;;;;;;9.94;35.75;102672.07;107498;1246;60264;-73
2022/03/15 10:39:34;;;;;;;39.00;22.30;;;;;;;10.33;36.34;102673.71;107518;1245;59619;-74
2022/03/15 10:42:08;;;;;;;34.90;20.50;;;;;;;10.44;35.23;102674.13;107507;1247;72237;-73
2022/03/15 10:44:40;;;;;;;33.10;20.20;;;;;;;10.51;34.47;102670.36;107367;1247;70198;-73
2022/03/15 10:47:17;;;;;;;35.50;22.50;;;;;;;10.65;35.30;102661.11;107366;1247;70908;-72
2022/03/15 10:49:55;;;;;;;37.20;20.30;;;;;;;10.93;34.98;102655.75;107499;1246;71786;-71
2022/03/15 10:52:33;;;;;;;32.90;19.60;;;;;;;11.03;34.93;102649.52;107538;1247;61472;-71
2022/03/15 10:55:13;;;;;;;33.50;20.80;;;;;;;11.09;34.50;102641.26;107775;1246;62645;-73
2022/03/15 10:57:57;;;;;;;31.20;20.40;;;;;;;11.08;34.93;102637.95;107828;1247;72187;-80
2022/03/15 11:00:29;;;;;;;32.70;20.90;;;;;;;11.16;33.58;102634.13;108057;1247;71306;-73
2022/03/15 11:03:00;;;;;;;31.20;20.10;;;;;;;11.08;33.46;102632.73;107727;1246;69510;-71
2022/03/15 11:05:32;;;;;;;33.00;20.60;;;;;;;10.98;33.82;102631.11;107458;1247;75050;-71
2022/03/15 11:08:14;;;;;;;33.60;21.20;;;;;;;11.02;33.56;102618.35;107332;1247;63256;-72
2022/03/15 11:10:50;;;;;;;31.60;19.10;;;;;;;11.24;32.91;102624.38;107259;1247;59825;-64
2022/03/15 11:13:28;;;;;;;32.80;20.30;;;;;;;11.14;33.55;102617.45;107562;1247;74169;-71
2022/03/15 11:15:59;;;;;;;31.80;20.60;;;;;;;11.13;33.88;102615.61;107575;1247;73342;-69
2022/03/15 11:18:30;;;;;;;33.30;20.70;;;;;;;11.20;33.41;102608.99;107602;1246;70500;-71